createdAt,value
2018-09-30T00:00:26.515Z,100579.91
2018-09-30T00:01:01.297Z,100574.47
2018-09-30T00:01:36.080Z,100578.24
2018-09-30T00:02:10.726Z,100576.70
2018-09-30T00:02:45.404Z,100572.91
2018-09-30T00:03:20.072Z,100569.98
2018-09-30T00:03:54.899Z,100565.60
2018-09-30T00:04:29.755Z,100569.06
2018-09-30T00:05:04.589Z,100574.00
2018-09-30T00:05:39.292Z,100565.84
2018-09-30T00:06:13.954Z,100571.82
2018-09-30T00:06:48.624Z,100567.10
2018-09-30T00:07:23.545Z,100573.45
2018-09-30T00:07:58.621Z,100571.45
2018-09-30T00:08:33.356Z,100570.13
2018-09-30T00:09:08.921Z,100573.42
2018-09-30T00:09:43.532Z,100563.54
2018-09-30T00:10:18.232Z,100567.92
2018-09-30T00:10:52.987Z,100569.69
2018-09-30T00:11:27.812Z,100568.87
2018-09-30T00:12:03.575Z,100564.11
2018-09-30T00:12:38.688Z,100572.70
2018-09-30T00:13:13.325Z,100571.38
2018-09-30T00:13:47.961Z,100566.09
2018-09-30T00:14:22.802Z,100573.02
2018-09-30T00:14:57.650Z,100564.11
2018-09-30T00:15:32.467Z,100568.49
2018-09-30T00:16:07.572Z,100571.55
2018-09-30T00:16:42.350Z,100562.22
2018-09-30T00:17:17.048Z,100566.97
2018-09-30T00:17:52.660Z,100567.66
2018-09-30T00:18:27.279Z,100565.61
2018-09-30T00:19:02.268Z,100564.80
2018-09-30T00:19:37.276Z,100572.67
2018-09-30T00:20:12.093Z,100565.68
2018-09-30T00:20:46.785Z,100568.74
2018-09-30T00:21:21.429Z,100559.56
2018-09-30T00:21:56.229Z,100563.88
2018-09-30T00:22:31.310Z,100559.77
2018-09-30T00:23:06.024Z,100559.60
2018-09-30T00:23:45.924Z,100561.40
2018-09-30T00:24:26.419Z,100559.77
2018-09-30T00:25:06.280Z,100561.33
2018-09-30T00:25:46.376Z,100561.91
2018-09-30T00:26:26.329Z,100561.91
2018-09-30T00:27:02.641Z,100560.75
2018-09-30T00:27:37.604Z,100557.89
2018-09-30T00:28:12.326Z,100556.44
2018-09-30T00:28:47.354Z,100550.02
2018-09-30T00:29:22.489Z,100559.16
2018-09-30T00:29:57.303Z,100558.59
2018-09-30T00:30:32.044Z,100549.95
2018-09-30T00:31:07.004Z,100552.67
2018-09-30T00:31:41.888Z,100555.19
2018-09-30T00:32:16.496Z,100557.53
2018-09-30T00:32:51.525Z,100552.16
2018-09-30T00:33:26.433Z,100555.73
2018-09-30T00:34:06.581Z,100557.22
2018-09-30T00:34:41.336Z,100556.58
2018-09-30T00:35:15.962Z,100551.52
2018-09-30T00:35:50.619Z,100548.16
2018-09-30T00:36:25.558Z,100546.86
2018-09-30T00:37:00.971Z,100547.20
2018-09-30T00:37:35.700Z,100548.59
2018-09-30T00:38:10.358Z,100550.56
2018-09-30T00:38:45.099Z,100550.84
2018-09-30T00:39:19.740Z,100553.02
2018-09-30T00:39:54.804Z,100552.33
2018-09-30T00:40:29.782Z,100546.16
2018-09-30T00:41:05.288Z,100556.00
2018-09-30T00:41:40.012Z,100544.08
2018-09-30T00:42:14.727Z,100548.12
2018-09-30T00:42:49.485Z,100549.03
2018-09-30T00:43:24.346Z,100547.20
2018-09-30T00:43:59.070Z,100545.53
2018-09-30T00:44:33.820Z,100542.78
2018-09-30T00:45:09.187Z,100551.88
2018-09-30T00:45:43.817Z,100550.75
2018-09-30T00:46:18.545Z,100550.69
2018-09-30T00:46:53.782Z,100551.44
2018-09-30T00:47:28.868Z,100544.74
2018-09-30T00:48:03.760Z,100543.17
2018-09-30T00:48:38.478Z,100543.42
2018-09-30T00:49:12.621Z,100539.71
2018-09-30T00:49:47.352Z,100540.19
2018-09-30T00:50:21.978Z,100539.27
2018-09-30T00:50:57.001Z,100542.41
2018-09-30T00:51:31.696Z,100539.12
2018-09-30T00:52:06.491Z,100538.16
2018-09-30T00:52:41.098Z,100531.09
2018-09-30T00:53:15.710Z,100531.46
2018-09-30T00:53:50.337Z,100535.75
2018-09-30T00:54:25.143Z,100532.02
2018-09-30T00:54:59.851Z,100527.60
2018-09-30T00:55:41.086Z,100531.61
2018-09-30T00:56:15.821Z,100534.80
2018-09-30T00:56:50.443Z,100529.86
2018-09-30T00:57:25.358Z,100528.30
2018-09-30T00:58:00.050Z,100529.70
2018-09-30T00:58:34.754Z,100536.15
2018-09-30T00:59:09.714Z,100530.37
2018-09-30T00:59:44.465Z,100531.78
2018-09-30T01:00:19.101Z,100522.91
2018-09-30T01:00:53.856Z,100529.17
2018-09-30T01:01:28.628Z,100525.58
2018-09-30T01:02:03.557Z,100519.07
2018-09-30T01:02:38.386Z,100525.58
2018-09-30T01:03:13.032Z,100525.20
2018-09-30T01:03:47.669Z,100530.27
2018-09-30T01:04:22.792Z,100522.76
2018-09-30T01:04:57.593Z,100527.64
2018-09-30T01:05:32.354Z,100515.59
2018-09-30T01:06:07.728Z,100525.50
2018-09-30T01:06:42.367Z,100525.81
2018-09-30T01:07:17.058Z,100527.73
2018-09-30T01:07:51.732Z,100528.70
2018-09-30T01:08:26.614Z,100529.14
2018-09-30T01:09:01.396Z,100522.70
2018-09-30T01:09:36.073Z,100522.66
2018-09-30T01:10:10.710Z,100516.22
2018-09-30T01:10:45.321Z,100515.37
2018-09-30T01:11:20.200Z,100518.39
2018-09-30T01:11:55.124Z,100517.66
2018-09-30T01:12:29.949Z,100519.05
2018-09-30T01:13:04.814Z,100511.31
2018-09-30T01:13:39.490Z,100515.14
2018-09-30T01:14:14.298Z,100517.82
2018-09-30T01:14:49.073Z,100505.12
2018-09-30T01:15:23.816Z,100515.42
2018-09-30T01:15:58.879Z,100513.22
2018-09-30T01:16:34.607Z,100511.11
2018-09-30T01:17:09.267Z,100508.00
2018-09-30T01:17:43.883Z,100513.84
2018-09-30T01:18:18.592Z,100511.02
2018-09-30T01:18:53.595Z,100504.73
2018-09-30T01:19:28.378Z,100512.06
2018-09-30T01:20:03.129Z,100503.32
2018-09-30T01:20:38.026Z,100505.33
2018-09-30T01:21:12.678Z,100505.45
2018-09-30T01:21:47.465Z,100502.28
2018-09-30T01:22:22.126Z,100510.11
2018-09-30T01:22:56.988Z,100502.16
2018-09-30T01:23:31.752Z,100509.80
2018-09-30T01:24:06.449Z,100509.35
2018-09-30T01:24:41.108Z,100502.28
2018-09-30T01:25:15.771Z,100505.80
2018-09-30T01:25:50.492Z,100508.13
2018-09-30T01:26:25.354Z,100503.16
2018-09-30T01:27:00.171Z,100495.91
2018-09-30T01:27:34.791Z,100493.40
2018-09-30T01:28:15.872Z,100499.91
2018-09-30T01:28:50.509Z,100501.98
2018-09-30T01:29:25.570Z,100500.45
2018-09-30T01:30:00.334Z,100502.34
2018-09-30T01:31:40.504Z,100504.29
2018-09-30T01:32:15.229Z,100491.52
2018-09-30T01:32:49.884Z,100496.14
2018-09-30T01:33:24.768Z,100501.64
2018-09-30T01:33:59.744Z,100498.72
2018-09-30T01:34:34.479Z,100498.44
2018-09-30T01:35:08.883Z,100494.61
2018-09-30T01:35:43.638Z,100504.05
2018-09-30T01:36:18.317Z,100499.86
2018-09-30T01:36:53.188Z,100491.86
2018-09-30T01:37:27.917Z,100496.45
2018-09-30T01:38:02.627Z,100500.48
2018-09-30T01:38:37.317Z,100500.80
2018-09-30T01:39:12.052Z,100501.46
2018-09-30T01:39:46.706Z,100498.06
2018-09-30T01:40:21.412Z,100499.92
2018-09-30T01:40:56.330Z,100501.59
2018-09-30T01:41:31.139Z,100495.02
2018-09-30T01:42:05.866Z,100499.77
2018-09-30T01:42:40.647Z,100501.16
2018-09-30T01:43:15.284Z,100496.94
2018-09-30T01:43:50.046Z,100498.70
2018-09-30T01:44:24.836Z,100501.72
2018-09-30T01:44:59.797Z,100499.95
2018-09-30T01:45:34.475Z,100504.70
2018-09-30T01:46:09.419Z,100502.88
2018-09-30T01:46:44.131Z,100496.56
2018-09-30T01:47:18.812Z,100499.05
2018-09-30T01:47:53.652Z,100496.56
2018-09-30T01:48:28.634Z,100495.45
2018-09-30T01:49:03.315Z,100500.48
2018-09-30T01:49:37.980Z,100496.05
2018-09-30T01:50:12.607Z,100502.94
2018-09-30T01:50:47.290Z,100496.18
2018-09-30T01:51:21.944Z,100502.31
2018-09-30T01:52:07.879Z,100504.92
2018-09-30T01:52:57.502Z,100502.63
2018-09-30T01:53:32.492Z,100504.83
2018-09-30T01:54:07.587Z,100501.46
2018-09-30T01:54:42.256Z,100503.54
2018-09-30T01:55:16.933Z,100502.63
2018-09-30T01:55:51.738Z,100499.02
2018-09-30T01:56:26.530Z,100508.95
2018-09-30T01:57:01.648Z,100503.13
2018-09-30T01:57:36.730Z,100502.91
2018-09-30T01:58:11.393Z,100501.68
2018-09-30T01:58:46.025Z,100506.59
2018-09-30T01:59:20.760Z,100507.97
2018-09-30T01:59:55.619Z,100507.03
2018-09-30T02:00:30.628Z,100505.45
2018-09-30T02:01:05.354Z,100508.92
2018-09-30T02:01:39.552Z,100510.65
2018-09-30T02:02:14.334Z,100509.27
2018-09-30T02:02:49.184Z,100502.88
2018-09-30T02:03:23.975Z,100497.38
2018-09-30T02:03:58.702Z,100509.36
2018-09-30T02:04:33.468Z,100511.05
2018-09-30T02:05:08.665Z,100502.06
2018-09-30T02:05:42.845Z,100499.77
2018-09-30T02:06:17.888Z,100503.26
2018-09-30T02:06:52.576Z,100505.48
2018-09-30T02:07:27.498Z,100498.76
2018-09-30T02:08:02.361Z,100502.00
2018-09-30T02:08:37.234Z,100500.80
2018-09-30T02:09:11.897Z,100495.33
2018-09-30T02:09:46.538Z,100495.23
2018-09-30T02:10:21.254Z,100496.28
2018-09-30T02:10:56.365Z,100493.00
2018-09-30T02:11:31.212Z,100491.72
2018-09-30T02:12:05.903Z,100500.45
2018-09-30T02:12:40.602Z,100500.11
2018-09-30T02:13:15.247Z,100495.42
2018-09-30T02:13:49.889Z,100497.21
2018-09-30T02:14:24.723Z,100495.10
2018-09-30T02:14:59.444Z,100501.52
2018-09-30T02:15:34.175Z,100491.94
2018-09-30T02:16:08.864Z,100501.87
2018-09-30T02:16:43.549Z,100508.41
2018-09-30T02:17:18.195Z,100502.95
2018-09-30T02:17:52.875Z,100498.71
2018-09-30T02:18:27.998Z,100499.56
2018-09-30T02:19:02.720Z,100499.97
2018-09-30T02:19:37.385Z,100494.02
2018-09-30T02:20:12.039Z,100500.84
2018-09-30T02:20:46.705Z,100489.78
2018-09-30T02:21:21.723Z,100497.42
2018-09-30T02:21:56.587Z,100494.61
2018-09-30T02:22:31.315Z,100498.53
2018-09-30T02:23:06.128Z,100495.58
2018-09-30T02:23:40.795Z,100488.85
2018-09-30T02:24:15.443Z,100491.31
2018-09-30T02:24:50.118Z,100491.55
2018-09-30T02:25:25.092Z,100498.94
2018-09-30T02:25:59.926Z,100493.97
2018-09-30T02:26:34.685Z,100497.45
2018-09-30T02:27:08.831Z,100496.08
2018-09-30T02:27:43.648Z,100495.66
2018-09-30T02:28:18.288Z,100493.61
2018-09-30T02:28:53.257Z,100491.73
2018-09-30T02:29:28.067Z,100495.70
2018-09-30T02:30:03.317Z,100495.60
2018-09-30T02:30:37.529Z,100486.11
2018-09-30T02:31:11.706Z,100490.92
2018-09-30T02:31:45.875Z,100495.75
2018-09-30T02:32:21.891Z,100493.64
2018-09-30T02:32:56.657Z,100491.19
2018-09-30T02:33:31.552Z,100486.94
2018-09-30T02:34:06.316Z,100491.63
2018-09-30T02:34:40.940Z,100486.59
2018-09-30T02:35:15.952Z,100484.89
2018-09-30T02:35:50.691Z,100483.22
2018-09-30T02:36:25.553Z,100486.70
2018-09-30T02:37:00.291Z,100480.76
2018-09-30T02:37:35.096Z,100482.98
2018-09-30T02:38:10.383Z,100488.55
2018-09-30T02:38:45.087Z,100472.50
2018-09-30T02:39:19.741Z,100483.72
2018-09-30T02:39:54.503Z,100477.36
2018-09-30T02:40:29.885Z,100483.80
2018-09-30T02:41:04.884Z,100479.62
2018-09-30T02:41:39.664Z,100486.59
2018-09-30T02:42:14.944Z,100487.00
2018-09-30T02:42:49.574Z,100487.34
2018-09-30T02:43:24.402Z,100491.24
2018-09-30T02:43:59.108Z,100482.72
2018-09-30T02:44:33.840Z,100486.18
2018-09-30T02:45:08.413Z,100481.05
2018-09-30T02:45:43.053Z,100487.06
2018-09-30T02:46:17.759Z,100477.39
2018-09-30T02:46:52.442Z,100486.70
2018-09-30T02:47:27.205Z,100480.34
2018-09-30T02:48:02.005Z,100481.98
2018-09-30T02:48:36.976Z,100483.30
2018-09-30T02:49:11.738Z,100487.14
2018-09-30T02:49:46.393Z,100479.06
2018-09-30T02:50:21.083Z,100481.22
2018-09-30T02:50:55.835Z,100476.84
2018-09-30T02:51:30.545Z,100478.91
2018-09-30T02:52:05.364Z,100477.74
2018-09-30T02:52:40.092Z,100469.72
2018-09-30T02:53:14.816Z,100474.87
2018-09-30T02:53:49.492Z,100477.86
2018-09-30T02:54:24.390Z,100476.10
2018-09-30T02:54:59.268Z,100474.34
2018-09-30T02:55:33.998Z,100477.16
2018-09-30T02:56:09.037Z,100474.26
2018-09-30T02:56:43.713Z,100471.71
2018-09-30T02:57:18.399Z,100467.87
2018-09-30T02:57:53.082Z,100469.28
2018-09-30T02:58:28.326Z,100467.49
2018-09-30T02:59:03.287Z,100470.19
2018-09-30T02:59:37.928Z,100474.02
2018-09-30T03:00:13.009Z,100466.47
2018-09-30T03:00:47.668Z,100455.72
2018-09-30T03:01:22.361Z,100468.75
2018-09-30T03:01:57.411Z,100463.16
2018-09-30T03:02:32.224Z,100461.93
2018-09-30T03:03:07.064Z,100453.94
2018-09-30T03:03:41.809Z,100461.14
2018-09-30T03:04:16.814Z,100458.47
2018-09-30T03:04:51.639Z,100452.59
2018-09-30T03:05:26.759Z,100457.02
2018-09-30T03:06:01.538Z,100456.66
2018-09-30T03:06:41.712Z,100452.47
2018-09-30T03:07:21.711Z,100455.95
2018-09-30T03:09:00.424Z,100461.58
2018-09-30T03:09:35.140Z,100451.56
2018-09-30T03:10:10.186Z,100448.14
2018-09-30T03:10:44.845Z,100438.57
2018-09-30T03:11:19.508Z,100443.34
2018-09-30T03:11:54.402Z,100444.63
2018-09-30T03:12:29.246Z,100440.27
2018-09-30T03:13:04.056Z,100445.73
2018-09-30T03:13:38.697Z,100437.63
2018-09-30T03:14:14.836Z,100440.59
2018-09-30T03:14:49.468Z,100439.39
2018-09-30T03:15:24.398Z,100435.34
2018-09-30T03:15:59.136Z,100441.05
2018-09-30T03:16:33.919Z,100434.64
2018-09-30T03:17:08.570Z,100434.35
2018-09-30T03:17:43.224Z,100431.55
2018-09-30T03:18:18.029Z,100434.44
2018-09-30T03:18:52.729Z,100439.33
2018-09-30T03:19:27.785Z,100438.73
2018-09-30T03:20:02.751Z,100429.61
2018-09-30T03:20:37.412Z,100432.36
2018-09-30T03:21:12.047Z,100429.52
2018-09-30T03:21:46.692Z,100436.11
2018-09-30T03:22:21.357Z,100431.11
2018-09-30T03:22:56.102Z,100431.62
2018-09-30T03:23:30.847Z,100426.63
2018-09-30T03:24:05.524Z,100429.52
2018-09-30T03:24:40.193Z,100421.45
2018-09-30T03:25:14.958Z,100426.63
2018-09-30T03:25:49.865Z,100419.02
2018-09-30T03:26:24.833Z,100422.76
2018-09-30T03:26:59.577Z,100423.44
2018-09-30T03:27:34.265Z,100415.88
2018-09-30T03:28:09.049Z,100419.57
2018-09-30T03:28:43.733Z,100415.44
2018-09-30T03:29:18.571Z,100425.10
2018-09-30T03:29:53.248Z,100416.94
2018-09-30T03:30:28.169Z,100417.08
2018-09-30T03:31:02.968Z,100421.30
2018-09-30T03:31:37.745Z,100417.11
2018-09-30T03:32:12.426Z,100418.38
2018-09-30T03:32:47.411Z,100417.96
2018-09-30T03:33:22.072Z,100419.59
2018-09-30T03:33:56.935Z,100412.11
2018-09-30T03:34:31.627Z,100416.41
2018-09-30T03:35:06.486Z,100412.19
2018-09-30T03:35:41.256Z,100408.69
2018-09-30T03:36:15.985Z,100410.55
2018-09-30T03:36:50.688Z,100407.80
2018-09-30T03:37:25.568Z,100404.88
2018-09-30T03:38:00.444Z,100402.97
2018-09-30T03:38:35.148Z,100399.58
2018-09-30T03:39:10.200Z,100404.27
2018-09-30T03:39:45.307Z,100399.75
2018-09-30T03:40:20.139Z,100399.58
2018-09-30T03:40:54.952Z,100400.40
2018-09-30T03:41:29.941Z,100400.66
2018-09-30T03:42:11.293Z,100400.72
2018-09-30T03:42:45.921Z,100399.11
2018-09-30T03:43:20.612Z,100395.11
2018-09-30T03:43:55.535Z,100402.42
2018-09-30T03:44:29.810Z,100402.59
2018-09-30T03:45:04.534Z,100404.56
2018-09-30T03:45:39.177Z,100408.94
2018-09-30T03:46:13.840Z,100409.09
2018-09-30T03:46:48.480Z,100412.48
2018-09-30T03:47:23.160Z,100410.61
2018-09-30T03:47:58.015Z,100414.65
2018-09-30T03:48:32.779Z,100409.26
2018-09-30T03:49:07.671Z,100408.00
2018-09-30T03:49:42.318Z,100406.71
2018-09-30T03:50:17.215Z,100406.68
2018-09-30T03:50:51.996Z,100406.30
2018-09-30T03:51:26.975Z,100402.11
2018-09-30T03:52:01.793Z,100406.27
2018-09-30T03:52:36.620Z,100400.44
2018-09-30T03:53:10.844Z,100404.66
2018-09-30T03:53:45.500Z,100402.48
2018-09-30T03:54:20.211Z,100397.77
2018-09-30T03:54:55.037Z,100406.63
2018-09-30T03:55:30.001Z,100403.88
2018-09-30T03:56:04.704Z,100407.91
2018-09-30T03:56:39.614Z,100407.48
2018-09-30T03:57:14.440Z,100399.62
2018-09-30T03:57:49.080Z,100400.61
2018-09-30T03:58:24.290Z,100404.41
2018-09-30T03:58:59.341Z,100404.39
2018-09-30T03:59:34.143Z,100406.27
2018-09-30T04:00:08.864Z,100402.87
2018-09-30T04:00:43.640Z,100401.64
2018-09-30T04:01:18.448Z,100402.91
2018-09-30T04:01:53.354Z,100399.05
2018-09-30T04:02:28.149Z,100404.30
2018-09-30T04:03:02.987Z,100401.20
2018-09-30T04:03:37.684Z,100405.15
2018-09-30T04:04:12.372Z,100404.88
2018-09-30T04:04:47.318Z,100398.46
2018-09-30T04:05:22.072Z,100399.34
2018-09-30T04:05:56.913Z,100406.10
2018-09-30T04:06:31.820Z,100402.58
2018-09-30T04:07:06.654Z,100397.06
2018-09-30T04:07:41.294Z,100396.30
2018-09-30T04:08:15.937Z,100394.49
2018-09-30T04:08:50.594Z,100396.69
2018-09-30T04:09:25.642Z,100396.73
2018-09-30T04:10:00.548Z,100400.63
2018-09-30T04:10:35.377Z,100397.20
2018-09-30T04:11:10.034Z,100396.45
2018-09-30T04:11:44.660Z,100396.94
2018-09-30T04:12:19.322Z,100389.98
2018-09-30T04:12:54.489Z,100394.36
2018-09-30T04:13:29.196Z,100389.55
2018-09-30T04:14:03.936Z,100392.33
2018-09-30T04:14:38.576Z,100390.25
2018-09-30T04:15:13.263Z,100388.03
2018-09-30T04:15:47.910Z,100389.43
2018-09-30T04:16:22.664Z,100389.45
2018-09-30T04:16:57.543Z,100388.89
2018-09-30T04:17:32.399Z,100392.50
2018-09-30T04:18:07.253Z,100392.52
2018-09-30T04:18:41.884Z,100397.25
2018-09-30T04:19:16.568Z,100398.67
2018-09-30T04:19:51.196Z,100392.41
2018-09-30T04:20:26.077Z,100395.38
2018-09-30T04:21:00.804Z,100396.25
2018-09-30T04:21:35.486Z,100388.58
2018-09-30T04:22:10.122Z,100393.70
2018-09-30T04:22:44.753Z,100391.26
2018-09-30T04:23:19.398Z,100389.64
2018-09-30T04:23:59.417Z,100386.22
2018-09-30T04:24:34.143Z,100391.77
2018-09-30T04:25:08.788Z,100391.72
2018-09-30T04:25:43.525Z,100383.08
2018-09-30T04:26:17.668Z,100385.67
2018-09-30T04:26:51.861Z,100386.94
2018-09-30T04:27:26.368Z,100381.92
2018-09-30T04:28:00.586Z,100388.84
2018-09-30T04:28:35.597Z,100389.64
2018-09-30T04:29:10.314Z,100381.53
2018-09-30T04:29:44.939Z,100378.98
2018-09-30T04:30:19.732Z,100386.28
2018-09-30T04:30:55.415Z,100380.64
2018-09-30T04:31:30.622Z,100373.95
2018-09-30T04:32:05.869Z,100371.40
2018-09-30T04:32:40.492Z,100381.99
2018-09-30T04:33:15.247Z,100379.01
2018-09-30T04:33:50.119Z,100379.27
2018-09-30T04:34:25.507Z,100382.77
2018-09-30T04:35:00.735Z,100375.93
2018-09-30T04:35:35.792Z,100376.80
2018-09-30T04:36:10.720Z,100375.13
2018-09-30T04:36:45.594Z,100375.13
2018-09-30T04:37:20.302Z,100374.67
2018-09-30T04:37:55.377Z,100379.40
2018-09-30T04:38:30.433Z,100380.81
2018-09-30T04:39:07.853Z,100383.82
2018-09-30T04:39:42.489Z,100380.30
2018-09-30T04:40:17.172Z,100373.53
2018-09-30T04:40:51.796Z,100374.38
2018-09-30T04:41:26.698Z,100377.75
2018-09-30T04:42:01.657Z,100379.88
2018-09-30T04:42:36.412Z,100375.33
2018-09-30T04:43:11.409Z,100380.45
2018-09-30T04:43:46.073Z,100380.83
2018-09-30T04:44:20.688Z,100376.66
2018-09-30T04:44:55.434Z,100380.38
2018-09-30T04:45:30.265Z,100378.36
2018-09-30T04:46:04.978Z,100382.60
2018-09-30T04:46:39.592Z,100380.52
2018-09-30T04:47:14.236Z,100379.28
2018-09-30T04:47:48.877Z,100379.73
2018-09-30T04:48:23.555Z,100381.08
2018-09-30T04:48:58.391Z,100378.97
2018-09-30T04:49:33.201Z,100375.53
2018-09-30T04:50:08.673Z,100381.89
2018-09-30T04:50:43.434Z,100374.55
2018-09-30T04:51:18.095Z,100376.56
2018-09-30T04:51:52.318Z,100379.88
2018-09-30T04:52:27.301Z,100373.12
2018-09-30T04:53:02.056Z,100370.18
2018-09-30T04:53:36.688Z,100370.66
2018-09-30T04:54:11.332Z,100372.17
2018-09-30T04:54:45.989Z,100377.37
2018-09-30T04:55:20.917Z,100369.14
2018-09-30T04:55:55.662Z,100372.58
2018-09-30T04:56:30.402Z,100374.30
2018-09-30T04:57:05.052Z,100368.80
2018-09-30T04:57:39.766Z,100368.31
2018-09-30T04:58:14.446Z,100376.93
2018-09-30T04:58:49.113Z,100374.82
2018-09-30T04:59:23.821Z,100371.81
2018-09-30T04:59:58.544Z,100374.82
2018-09-30T05:00:32.702Z,100377.39
2018-09-30T05:01:07.713Z,100368.84
2018-09-30T05:01:42.428Z,100371.56
2018-09-30T05:02:17.048Z,100362.52
2018-09-30T05:02:51.722Z,100369.00
2018-09-30T05:03:26.636Z,100365.58
2018-09-30T05:04:01.361Z,100364.75
2018-09-30T05:04:36.073Z,100367.76
2018-09-30T05:05:10.732Z,100367.66
2018-09-30T05:05:45.387Z,100363.03
2018-09-30T05:06:20.180Z,100363.88
2018-09-30T05:06:54.998Z,100362.16
2018-09-30T05:07:29.765Z,100366.02
2018-09-30T05:08:04.580Z,100362.56
2018-09-30T05:08:39.208Z,100361.83
2018-09-30T05:09:13.360Z,100362.28
2018-09-30T05:09:47.990Z,100359.39
2018-09-30T05:10:22.815Z,100358.03
2018-09-30T05:10:57.954Z,100363.17
2018-09-30T05:11:32.752Z,100357.67
2018-09-30T05:12:07.441Z,100358.91
2018-09-30T05:12:42.396Z,100362.73
2018-09-30T05:13:17.033Z,100363.30
2018-09-30T05:13:51.685Z,100366.30
2018-09-30T05:14:26.727Z,100367.52
2018-09-30T05:15:01.527Z,100361.09
2018-09-30T05:15:36.242Z,100363.27
2018-09-30T05:16:11.086Z,100364.62
2018-09-30T05:16:45.962Z,100364.53
2018-09-30T05:17:20.637Z,100365.82
2018-09-30T05:17:55.735Z,100360.39
2018-09-30T05:18:30.650Z,100362.59
2018-09-30T05:19:05.309Z,100360.39
2018-09-30T05:19:39.946Z,100359.19
2018-09-30T05:20:14.588Z,100367.70
2018-09-30T05:20:49.272Z,100366.42
2018-09-30T05:21:24.183Z,100365.57
2018-09-30T05:21:58.885Z,100374.11
2018-09-30T05:22:33.652Z,100370.30
2018-09-30T05:23:08.296Z,100368.99
2018-09-30T05:23:42.941Z,100367.70
2018-09-30T05:24:17.895Z,100361.26
2018-09-30T05:24:52.618Z,100363.02
2018-09-30T05:25:27.541Z,100364.30
2018-09-30T05:26:02.314Z,100363.88
2018-09-30T05:26:36.996Z,100361.33
2018-09-30T05:27:11.608Z,100363.95
2018-09-30T05:27:46.240Z,100369.55
2018-09-30T05:28:20.867Z,100364.84
2018-09-30T05:28:55.784Z,100360.57
2018-09-30T05:29:30.613Z,100364.19
2018-09-30T05:30:06.236Z,100366.76
2018-09-30T05:30:40.897Z,100365.47
2018-09-30T05:31:15.573Z,100364.60
2018-09-30T05:31:50.377Z,100365.47
2018-09-30T05:32:25.209Z,100360.77
2018-09-30T05:33:00.108Z,100361.45
2018-09-30T05:33:34.804Z,100355.56
2018-09-30T05:34:09.509Z,100360.68
2018-09-30T05:34:44.139Z,100368.31
2018-09-30T05:35:18.753Z,100362.01
2018-09-30T05:35:53.520Z,100364.95
2018-09-30T05:36:28.307Z,100370.09
2018-09-30T05:37:03.236Z,100368.45
2018-09-30T05:37:38.027Z,100367.61
2018-09-30T05:38:12.640Z,100367.66
2018-09-30T05:38:47.413Z,100369.75
2018-09-30T05:39:22.410Z,100367.98
2018-09-30T05:39:57.420Z,100365.23
2018-09-30T05:40:32.164Z,100365.23
2018-09-30T05:41:06.964Z,100363.70
2018-09-30T05:41:41.709Z,100360.39
2018-09-30T05:42:16.310Z,100357.43
2018-09-30T05:42:50.926Z,100356.82
2018-09-30T05:43:25.786Z,100359.52
2018-09-30T05:44:00.728Z,100355.70
2018-09-30T05:44:35.400Z,100345.11
2018-09-30T05:45:10.076Z,100352.74
2018-09-30T05:45:44.731Z,100357.02
2018-09-30T05:46:19.377Z,100358.25
2018-09-30T05:46:54.038Z,100355.31
2018-09-30T05:47:29.077Z,100358.95
2018-09-30T05:48:04.172Z,100360.28
2018-09-30T05:48:38.892Z,100354.17
2018-09-30T05:49:13.622Z,100358.00
2018-09-30T05:49:48.450Z,100351.59
2018-09-30T05:50:24.104Z,100356.73
2018-09-30T05:50:59.052Z,100351.50
2018-09-30T05:51:33.776Z,100356.05
2018-09-30T05:52:08.561Z,100356.95
2018-09-30T05:52:43.293Z,100355.71
2018-09-30T05:53:17.956Z,100359.65
2018-09-30T05:53:52.680Z,100355.43
2018-09-30T05:54:27.597Z,100360.11
2018-09-30T05:55:02.468Z,100358.00
2018-09-30T05:55:37.209Z,100358.44
2018-09-30T05:56:11.888Z,100363.17
2018-09-30T05:56:46.540Z,100356.89
2018-09-30T05:57:21.195Z,100360.23
2018-09-30T05:57:56.392Z,100363.69
2018-09-30T05:58:31.723Z,100365.23
2018-09-30T05:59:06.689Z,100364.81
2018-09-30T05:59:40.884Z,100367.67
2018-09-30T06:00:15.548Z,100364.77
2018-09-30T06:00:50.470Z,100366.44
2018-09-30T06:01:25.325Z,100364.38
2018-09-30T06:02:00.112Z,100364.43
2018-09-30T06:02:34.882Z,100365.25
2018-09-30T06:03:09.495Z,100364.20
2018-09-30T06:03:44.161Z,100368.95
2018-09-30T06:04:18.776Z,100365.20
2018-09-30T06:04:53.915Z,100364.25
2018-09-30T06:05:28.862Z,100368.63
2018-09-30T06:06:03.643Z,100365.54
2018-09-30T06:06:38.373Z,100359.39
2018-09-30T06:07:13.022Z,100365.49
2018-09-30T06:07:47.665Z,100362.55
2018-09-30T06:08:22.351Z,100371.63
2018-09-30T06:08:57.390Z,100370.06
2018-09-30T06:09:32.498Z,100368.94
2018-09-30T06:10:07.938Z,100367.56
2018-09-30T06:10:42.570Z,100367.21
2018-09-30T06:11:17.252Z,100364.51
2018-09-30T06:11:51.950Z,100370.98
2018-09-30T06:12:26.746Z,100369.83
2018-09-30T06:13:01.600Z,100365.10
2018-09-30T06:13:36.275Z,100370.69
2018-09-30T06:14:11.256Z,100370.22
2018-09-30T06:14:46.075Z,100369.19
2018-09-30T06:15:20.765Z,100369.52
2018-09-30T06:15:55.768Z,100372.53
2018-09-30T06:16:30.775Z,100371.52
2018-09-30T06:17:05.391Z,100368.38
2018-09-30T06:17:40.237Z,100368.87
2018-09-30T06:18:14.872Z,100368.30
2018-09-30T06:18:49.703Z,100369.28
2018-09-30T06:19:24.816Z,100370.95
2018-09-30T06:20:00.057Z,100375.83
2018-09-30T06:20:34.938Z,100370.68
2018-09-30T06:21:09.816Z,100374.55
2018-09-30T06:21:44.962Z,100368.19
2018-09-30T06:22:19.781Z,100373.25
2018-09-30T06:22:54.804Z,100371.15
2018-09-30T06:23:29.618Z,100373.31
2018-09-30T06:24:04.565Z,100364.05
2018-09-30T06:24:39.636Z,100371.70
2018-09-30T06:25:14.377Z,100373.01
2018-09-30T06:25:49.252Z,100368.69
2018-09-30T06:26:24.199Z,100365.34
2018-09-30T06:26:59.544Z,100371.15
2018-09-30T06:27:34.390Z,100363.40
2018-09-30T06:28:09.129Z,100377.11
2018-09-30T06:28:43.806Z,100364.30
2018-09-30T06:29:18.615Z,100360.47
2018-09-30T06:29:53.350Z,100367.70
2018-09-30T06:30:28.299Z,100367.70
2018-09-30T06:31:03.415Z,100361.61
2018-09-30T06:31:38.242Z,100363.58
2018-09-30T06:32:13.198Z,100354.66
2018-09-30T06:32:48.080Z,100357.53
2018-09-30T06:33:23.346Z,100364.31
2018-09-30T06:33:58.369Z,100361.42
2018-09-30T06:34:33.197Z,100360.52
2018-09-30T06:35:07.942Z,100356.27
2018-09-30T06:35:42.606Z,100364.76
2018-09-30T06:36:17.333Z,100360.52
2018-09-30T06:36:52.155Z,100359.64
2018-09-30T06:37:27.315Z,100366.72
2018-09-30T06:38:02.534Z,100361.30
2018-09-30T06:38:37.330Z,100367.30
2018-09-30T06:39:12.139Z,100357.83
2018-09-30T06:39:46.802Z,100365.58
2018-09-30T06:40:21.792Z,100354.72
2018-09-30T06:40:56.988Z,100359.42